Date,TemperatureHighF,TemperatureAvgF,TemperatureLowF,DewpointHighF,DewpointAvgF,DewpointLowF,HumidityHigh,HumidityAvg,HumidityLow,PressureMaxIn,PressureMinIn,WindSpeedMaxMPH,WindSpeedAvgMPH,GustSpeedMaxMPH,PrecipitationSumIn
2012-1-15,12,12,11,-1,-11,-100,58,48,49,30.62,30.55,1,0,4,0.00
2012-1-16,30,18,4,24,8,-1,87,67,45,30.59,30.05,4,1,12,0.00
2012-1-17,42,34,28,41,32,24,96,91,86,30.05,29.40,7,1,8,0.08
2012-1-18,46,30,18,42,16,6,96,57,43,30.17,29.41,9,2,17,0.00
2012-1-19,28,21,10,25,12,5,93,71,46,30.24,29.89,7,0,11,0.11
2012-1-20,27,22,18,25,11,4,93,63,42,30.29,29.88,5,1,9,0.00
2012-1-21,20,18,14,14,11,4,86,74,53,30.34,30.10,2,0,7,0.12
2012-1-22,29,19,5,23,13,2,88,78,62,30.55,30.36,3,0,7,0.00
2012-1-23,42,33,28,41,31,23,98,92,81,30.37,29.76,2,0,6,0.48
2012-1-24,50,40,34,42,37,31,98,90,68,30.10,29.77,2,0,7,0.01
2012-1-25,36,35,33,30,26,25,82,71,67,30.27,30.09,5,1,9,0.00
2012-1-26,35,32,29,31,29,26,95,87,76,30.20,29.83,1,0,5,0.17
2012-1-27,46,38,32,45,35,30,98,89,68,29.81,29.25,4,0,13,0.64
2012-1-28,45,39,32,30,27,18,80,63,43,29.98,29.78,8,1,11,0.00
2012-1-29,44,35,29,24,18,13,68,51,37,30.08,29.92,7,1,14,0.00
2012-1-30,36,31,25,23,17,12,72,56,40,30.25,29.89,8,1,13,0.00
2012-1-31,54,41,28,32,24,18,70,53,38,30.20,29.91,5,1,9,0.00
2012-2-1,62,48,42,44,36,31,76,65,46,30.00,29.76,5,1,10,0.00
2012-2-2,42,37,30,31,27,20,72,68,62,30.26,29.99,5,0,8,0.00
2012-2-3,42,32,22,25,19,15,74,61,38,30.43,30.26,5,1,10,0.00
2012-2-4,43,34,28,29,24,20,83,67,46,30.27,30.11,5,0,9,0.00
2012-2-5,36,27,20,18,16,13,76,63,47,30.18,30.07,2,0,5,0.00
2012-2-6,52,32,19,28,22,16,91,71,37,30.11,29.84,4,0,6,0.00
2012-2-7,45,34,25,29,24,19,87,69,47,30.25,29.90,4,0,10,0.00
2012-2-8,34,28,21,20,17,13,75,64,49,30.32,30.05,2,0,7,0.00
2012-2-9,46,32,23,23,20,16,85,62,30,30.10,30.00,3,0,8,0.00
2012-2-10,44,31,20,26,21,16,88,68,43,30.09,29.86,5,0,9,0.00
2012-2-11,38,31,20,31,23,13,90,71,62,29.86,29.59,5,1,11,0.01
2012-2-12,28,20,13,14,6,-4,77,54,42,29.89,29.71,5,1,12,0.00
2012-2-13,45,30,19,20,15,11,79,58,30,29.97,29.83,4,1,12,0.00
2012-2-14,42,32,21,28,22,16,81,68,46,30.05,29.97,2,0,6,0.00
2012-2-15,41,36,32,35,31,26,93,83,70,30.26,30.03,1,0,4,0.00
2012-2-16,36,30,24,34,28,22,96,92,79,30.26,29.95,3,0,6,0.17
2012-2-17,48,39,35,37,30,21,97,74,38,29.98,29.90,4,0,10,0.00
2012-2-18,44,36,28,31,26,21,87,67,47,30.02,29.82,5,1,13,0.00
2012-2-19,43,34,27,31,22,19,89,61,40,30.09,29.97,3,1,9,0.00
2012-2-20,41,32,26,23,17,13,76,56,34,30.31,30.01,7,1,11,0.00
2012-2-21,42,31,19,33,22,15,88,69,46,30.34,29.78,4,1,11,0.00
2012-2-22,56,44,35,36,30,26,84,61,35,29.77,29.41,9,1,14,0.00
2012-2-23,48,41,33,39,30,25,89,68,43,29.76,29.32,6,1,13,0.01
2012-2-24,36,34,32,35,32,26,96,91,75,29.74,29.28,2,0,6,0.41
2012-2-25,41,36,30,34,22,14,96,59,47,29.95,29.27,18,2,18,0.01
2012-2-26,41,31,24,16,12,6,74,48,29,30.42,29.96,5,1,14,0.00
2012-2-27,49,36,20,31,24,15,85,64,48,30.41,29.98,4,1,13,0.00
2012-2-28,45,38,32,27,21,18,61,50,36,30.37,30.12,8,1,14,0.00
2012-2-29,34,32,29,30,25,20,94,78,59,30.36,29.80,0,0,2,0.57
2012-3-1,35,33,31,34,31,29,96,95,93,29.95,29.68,1,0,4,0.76
2012-3-2,36,33,30,31,29,27,93,86,78,30.07,29.79,3,0,6,0.01
2012-3-3,56,39,32,44,32,17,97,80,22,29.79,29.34,4,0,16,0.30
2012-3-4,41,34,27,28,24,18,87,66,41,29.69,29.53,2,0,9,0.00
2012-3-5,37,28,22,20,11,4,68,49,30,30.36,29.69,8,1,9,0.00
2012-3-6,41,28,19,20,13,8,66,54,31,30.58,30.37,2,0,6,0.00
2012-3-7,61,45,32,34,28,20,70,53,34,30.46,30.18,5,1,11,0.00
2012-3-8,68,57,42,51,45,35,83,67,49,30.18,29.68,8,1,21,0.06
2012-3-9,46,38,31,36,23,11,88,58,34,30.23,29.84,8,2,13,0.04
2012-3-10,42,32,27,21,17,10,77,54,39,30.48,30.23,4,1,11,0.00
2012-3-11,63,43,28,31,24,17,75,49,26,30.42,30.21,4,1,8,0.00
2012-3-12,71,48,30,44,32,26,88,60,25,30.27,30.04,1,0,5,0.00
2012-3-13,75,60,52,54,48,40,88,66,49,30.03,29.80,5,1,10,0.05
2012-3-14,66,52,40,50,37,29,95,64,27,30.18,29.93,5,0,10,0.00
2012-3-15,59,47,37,42,37,31,82,69,52,30.28,30.16,5,1,8,0.00
2012-3-16,54,46,42,47,42,38,94,87,78,30.22,30.05,4,0,9,0.06
2012-3-17,66,53,43,47,44,42,97,74,48,30.31,30.16,2,0,5,0.00
2012-3-18,72,54,43,53,46,40,91,77,49,30.30,30.08,5,0,7,0.00
2012-3-19,79,59,42,56,47,41,95,70,27,30.17,30.06,2,0,6,0.00
2012-3-20,79,63,47,57,51,45,93,69,42,30.26,30.15,4,0,10,0.00
2012-3-21,76,62,50,58,54,48,95,78,51,30.33,30.18,5,0,7,0.00
2012-3-22,81,62,48,58,53,47,97,76,44,30.20,29.99,2,0,5,0.00
2012-3-23,74,63,52,54,44,36,92,55,25,30.12,29.99,5,0,7,0.00
2012-3-24,64,56,51,36,26,-100,54,34,25,30.09,29.95,2,-22,5,0.00
2012-3-25,58,50,42,43,37,28,83,63,45,29.95,29.69,2,0,5,0.00
2012-3-26,52,42,31,45,23,4,91,51,26,30.11,29.64,9,2,22,0.01
2012-3-27,49,34,25,19,6,2,51,31,16,30.28,30.09,7,2,15,0.00
2012-3-28,60,45,37,48,29,11,90,57,31,30.10,29.48,4,1,11,0.13
2012-3-29,52,45,40,45,34,26,77,65,53,29.97,29.57,9,2,15,0.00
2012-3-30,53,42,32,27,19,14,61,42,24,30.07,29.92,8,1,11,0.00
2012-3-31,45,40,34,37,34,23,94,81,46,29.96,29.85,4,0,6,0.13
2012-4-1,49,43,39,42,38,36,93,85,64,29.87,29.62,4,0,7,0.14
2012-4-2,55,46,39,36,27,13,85,52,21,29.83,29.60,8,2,16,0.01
2012-4-3,62,48,37,20,14,8,43,27,13,29.90,29.72,6,1,10,0.00
2012-4-4,61,49,38,36,26,18,68,44,23,29.73,29.52,6,1,15,0.00
2012-4-5,51,42,36,30,26,22,74,53,38,29.92,29.71,6,1,12,0.00
2012-4-6,55,43,34,26,22,17,66,45,26,30.01,29.89,7,1,10,0.00
2012-4-7,58,47,34,27,20,14,56,35,23,30.04,29.92,8,1,13,0.00
2012-4-8,63,48,34,36,24,16,67,42,18,29.98,29.61,5,1,13,0.00
2012-4-9,54,50,45,36,26,21,58,41,29,29.66,29.56,11,2,14,0.00
2012-4-10,59,50,42,33,25,20,61,39,23,29.76,29.57,5,1,12,0.00
2012-4-11,53,45,34,35,32,29,85,61,40,29.89,29.75,5,0,9,0.00
2012-4-12,58,47,42,39,35,29,77,63,36,30.09,29.89,5,1,11,0.02
2012-4-13,67,52,36,36,29,23,79,46,20,30.17,30.03,4,1,9,0.00
2012-4-14,74,55,33,37,32,25,85,47,17,30.18,29.92,3,0,6,0.00
2012-4-15,76,63,52,58,52,37,96,70,40,29.96,29.85,4,0,6,0.10
2012-4-16,91,73,55,59,55,49,92,59,24,29.94,29.75,6,1,11,0.00
2012-4-17,74,64,49,57,42,30,70,45,22,30.22,29.82,10,1,10,0.00
2012-4-18,55,48,41,35,32,30,78,56,42,30.27,30.08,2,0,7,0.00
2012-4-19,75,55,34,45,38,31,89,59,26,30.08,29.88,3,0,7,0.00
2012-4-20,78,62,45,53,47,42,91,62,30,29.95,29.78,11,1,12,0.00
2012-4-21,78,61,46,58,52,44,94,74,46,29.79,29.58,5,1,11,0.72
2012-4-22,46,42,39,44,40,38,95,89,75,29.84,29.53,5,1,8,0.90
2012-4-23,53,43,39,49,41,38,97,93,83,29.52,29.17,4,1,9,1.67
2012-4-24,56,46,38,41,36,31,86,69,42,29.62,29.27,8,1,13,0.02
2012-4-25,55,46,36,43,34,30,90,66,40,29.89,29.62,4,0,9,0.02
2012-4-26,58,46,31,50,38,29,95,75,46,29.91,29.53,3,0,6,0.01
2012-4-27,52,44,39,50,30,24,93,58,45,30.07,29.55,9,2,17,0.00
2012-4-28,60,46,33,27,20,13,65,39,17,30.19,30.04,3,0,8,0.00
2012-4-29,60,47,31,25,19,14,69,36,18,30.23,30.04,10,1,14,0.00
2012-4-30,63,49,31,40,27,18,76,44,24,30.32,30.10,5,0,7,0.01
2012-5-1,59,54,48,53,48,39,95,84,65,30.09,29.95,2,0,6,0.10
2012-5-2,56,53,51,51,48,47,93,85,77,30.13,30.05,5,0,7,0.00
2012-5-3,62,56,50,55,51,47,92,85,77,30.08,30.00,3,1,8,0.00
2012-5-4,76,62,53,65,58,52,97,87,68,29.99,29.80,3,0,6,0.14
2012-5-5,71,61,54,57,49,30,96,69,33,30.04,29.85,3,0,7,0.00
2012-5-6,71,57,46,53,45,31,89,65,42,30.09,29.98,2,0,5,0.00
2012-5-7,73,58,47,55,46,38,93,67,45,30.09,29.97,4,1,10,0.07
2012-5-8,57,53,50,56,51,46,97,91,81,29.99,29.76,3,0,7,0.31
2012-5-9,70,62,57,62,58,52,97,87,67,29.76,29.54,2,0,4,0.01
2012-5-10,60,55,50,54,45,38,93,72,52,29.74,29.47,6,1,12,0.13
2012-5-11,69,56,46,39,34,25,72,47,20,30.05,29.75,5,1,16,0.00
2012-5-12,82,60,38,52,43,36,93,59,22,30.18,30.03,3,0,7,0.00
2012-5-13,79,66,52,58,53,49,91,67,37,30.13,29.99,2,0,6,0.00
2012-5-14,72,62,58,62,58,55,98,87,64,30.11,30.04,2,0,7,0.41
2012-5-15,64,61,59,63,61,59,99,98,97,30.06,29.90,1,0,3,0.61
2012-5-16,80,67,60,68,61,50,99,85,52,29.91,29.70,3,0,7,0.01
2012-5-17,70,58,49,49,41,38,72,54,33,30.13,29.92,3,0,9,0.00
2012-5-18,75,58,41,48,42,33,91,61,23,30.21,30.08,2,0,5,0.00
2012-5-19,83,64,45,56,49,43,92,65,29,30.17,30.04,1,0,4,0.00
2012-5-20,86,68,51,60,53,40,94,63,37,30.22,30.12,3,0,4,0.00
2012-5-21,69,61,53,63,54,41,99,78,51,30.19,29.98,1,0,3,0.98
2012-5-22,71,65,61,67,64,61,100,96,83,29.97,29.77,1,0,2,0.88
2012-5-23,80,69,63,69,65,62,98,86,60,29.98,29.81,2,0,5,0.05
2012-5-24,75,68,62,68,64,62,97,88,76,30.14,29.99,2,0,5,0.04
2012-5-25,78,69,63,69,64,61,95,87,74,30.16,30.02,3,0,6,0.03
2012-5-26,83,72,66,71,64,58,96,78,47,30.08,30.02,1,0,3,0.00
2012-5-27,82,70,58,67,59,52,83,70,46,30.15,29.93,3,0,5,0.00
2012-5-28,87,75,63,75,65,52,92,73,58,29.96,29.80,2,0,4,0.00
2012-5-29,92,76,67,77,70,64,97,83,56,29.79,29.58,4,0,7,0.31
2012-5-30,81,69,63,69,66,62,98,91,60,29.72,29.62,4,0,6,0.22
2012-5-31,77,67,55,60,51,46,94,60,38,29.92,29.71,8,0,10,0.00
2012-6-1,73,63,52,60,52,46,84,69,55,30.01,29.81,2,0,5,0.00
2012-6-2,67,61,56,62,57,53,97,88,71,29.80,29.66,2,0,5,0.81
2012-6-3,69,58,50,60,54,48,94,86,62,29.73,29.58,2,0,6,0.21
2012-6-4,59,55,52,54,52,49,96,90,76,29.81,29.60,1,0,5,0.18
2012-6-5,63,57,50,53,51,49,95,82,66,29.90,29.79,1,0,4,0.00
2012-6-6,69,58,49,58,53,47,94,84,65,29.97,29.88,2,0,5,0.00
2012-6-7,74,61,49,63,55,47,95,82,59,29.96,29.86,1,0,3,0.03
2012-6-8,79,64,54,63,57,53,97,81,48,29.90,29.74,2,0,5,0.00
2012-6-9,72,64,57,64,60,56,95,87,70,29.93,29.77,1,0,3,0.01
2012-6-10,84,72,61,68,64,59,95,77,49,30.11,29.94,1,0,4,0.00
2012-6-11,78,70,64,66,61,54,89,74,55,30.18,30.10,5,1,10,0.00
2012-6-12,70,65,62,66,62,56,97,89,72,30.11,29.85,3,0,7,0.45
2012-6-13,78,69,59,64,59,55,98,73,51,30.06,29.82,3,0,8,0.05
2012-6-14,80,68,58,60,56,51,82,66,46,30.21,30.06,2,0,4,0.00
2012-6-15,81,68,54,60,55,50,86,67,40,30.29,30.19,2,0,3,0.00
2012-6-16,82,68,55,61,56,53,92,68,45,30.30,30.13,2,0,5,0.00
2012-6-17,77,67,60,63,59,53,88,74,58,30.18,30.00,4,1,7,0.00
2012-6-18,73,64,55,60,56,52,90,76,61,30.10,30.00,5,1,8,0.00
2012-6-19,79,69,59,69,62,55,90,80,69,30.09,29.97,5,1,7,0.00
2012-6-20,97,80,66,77,71,65,97,76,45,30.01,29.86,2,0,5,0.00
2012-6-21,97,84,70,74,70,65,95,67,36,29.89,29.70,3,0,7,0.00
2012-6-22,89,76,69,73,70,66,96,83,55,29.78,29.70,5,0,11,0.13
2012-6-23,86,72,62,68,60,54,96,68,36,29.95,29.78,5,0,7,0.00
2012-6-24,83,70,56,65,60,55,96,73,43,29.98,29.82,3,0,5,0.01
2012-6-25,75,65,58,68,60,49,96,85,64,29.82,29.63,3,0,13,0.21
2012-6-26,72,62,56,55,52,48,81,69,53,29.70,29.64,5,1,13,0.00
2012-6-27,81,68,55,54,50,43,89,58,26,29.75,29.62,7,1,12,0.00
2012-6-28,88,73,57,65,59,53,90,66,42,29.77,29.62,1,0,4,0.00
2012-6-29,96,79,68,75,64,51,93,64,24,29.65,29.54,3,0,8,0.01
2012-6-30,93,78,62,68,59,50,89,57,24,29.72,29.63,3,0,8,0.00
2012-7-1,92,78,65,69,62,52,91,61,28,29.83,29.70,4,0,8,0.00
2012-7-2,87,74,62,63,59,54,88,61,33,29.87,29.82,3,0,7,0.00
2012-7-3,89,74,60,67,60,56,88,66,33,29.92,29.75,2,0,5,0.00
2012-7-4,89,77,68,74,70,66,98,81,54,29.77,29.63,3,0,4,0.10
2012-7-5,86,77,70,71,67,63,95,73,51,29.85,29.66,2,0,4,0.00
2012-7-6,91,76,62,70,65,60,91,70,44,29.92,29.78,2,0,7,0.00
2012-7-7,86,76,67,72,67,62,95,74,48,29.81,29.73,3,0,6,0.00
2012-7-8,90,77,66,69,63,55,88,65,31,29.86,29.75,3,0,9,0.00
2012-7-9,86,73,61,59,54,48,81,54,28,29.95,29.85,3,0,10,0.00
2012-7-10,85,71,57,61,54,48,80,57,34,30.05,29.94,3,0,6,0.00
2012-7-11,90,75,59,64,59,55,89,61,33,30.14,30.05,2,0,8,0.00
2012-7-12,92,79,66,68,63,59,81,61,38,30.14,30.03,3,0,7,0.00
2012-7-13,90,78,65,70,66,61,89,68,49,30.16,30.05,2,0,7,0.00
2012-7-14,90,77,68,71,67,61,98,76,38,30.17,30.02,3,0,5,0.53
2012-7-15,81,73,66,75,69,64,98,88,72,30.07,29.86,2,0,6,0.17
2012-7-16,89,78,69,72,69,65,98,78,49,29.86,29.72,2,0,5,0.00
2012-7-17,99,79,70,73,68,62,90,70,30,29.79,29.60,3,0,7,0.00
2012-7-18,91,82,73,76,70,63,89,68,50,29.87,29.69,1,0,5,0.00
2012-7-19,83,75,68,64,58,54,71,58,46,29.96,29.86,2,0,6,0.00
2012-7-20,70,67,65,63,60,56,86,77,62,30.03,29.95,1,0,3,0.44
2012-7-21,84,71,60,64,58,53,94,69,37,30.06,29.98,3,0,5,0.00
2012-7-22,86,74,62,67,63,57,90,70,48,30.10,29.99,4,0,10,0.00
2012-7-23,86,73,66,76,68,63,97,85,69,30.03,29.72,3,0,9,0.20
2012-7-24,88,75,67,73,65,52,98,74,48,29.75,29.56,4,0,12,0.02
2012-7-25,87,73,60,60,54,51,76,54,31,29.87,29.74,4,0,7,0.00
2012-7-26,87,72,65,75,67,60,97,83,66,29.74,29.52,4,0,8,0.19
2012-7-27,84,74,69,74,70,68,98,87,66,29.85,29.59,1,0,3,0.01
2012-7-28,74,70,68,71,68,66,98,93,84,29.92,29.84,1,0,3,0.57
2012-7-29,78,69,65,69,66,64,97,90,68,30.01,29.91,0,0,2,0.89
2012-7-30,83,72,63,71,66,62,96,84,64,30.08,29.98,2,0,8,0.00
2012-7-31,82,72,66,68,65,63,92,80,57,30.04,29.86,4,0,7,0.00
2012-8-1,84,74,66,76,68,64,93,82,62,29.86,29.75,3,0,7,0.04
2012-8-2,89,76,65,71,68,65,97,79,50,29.86,29.79,2,0,4,0.00
2012-8-3,90,76,65,75,69,64,94,80,57,30.03,29.85,2,0,7,0.00
2012-8-4,93,80,68,77,71,67,96,77,51,30.14,30.03,3,0,7,0.00
2012-8-5,86,77,72,78,73,70,96,88,71,30.12,29.84,7,0,11,0.19
2012-8-6,82,73,64,71,63,58,98,73,45,30.00,29.91,2,0,7,0.00
2012-8-7,84,70,57,65,60,55,94,75,48,30.00,29.88,2,0,4,0.00
2012-8-8,90,74,60,70,64,58,94,74,40,29.97,29.86,2,0,6,0.00
2012-8-9,89,74,69,74,70,67,96,86,54,29.90,29.78,3,0,6,0.09
2012-8-10,73,70,67,72,69,66,98,95,89,29.83,29.72,3,0,4,1.94
2012-8-11,80,73,68,77,71,67,98,94,87,29.84,29.74,1,0,4,1.05
2012-8-12,85,74,66,69,66,62,94,77,49,29.89,29.80,3,0,8,0.00
2012-8-13,80,71,62,68,64,61,96,80,56,29.96,29.88,2,0,5,0.00
2012-8-14,76,68,61,70,65,60,95,89,77,29.94,29.83,1,0,4,0.02
2012-8-15,79,70,64,69,67,63,97,89,72,29.87,29.81,3,0,4,0.52
2012-8-16,84,73,64,66,64,60,94,76,44,29.89,29.78,6,0,7,0.00
2012-8-17,82,69,60,72,65,59,97,86,68,29.84,29.71,2,0,7,0.03
2012-8-18,77,68,60,62,58,52,96,73,44,29.92,29.82,3,0,5,0.06
2012-8-19,75,64,52,58,54,50,92,73,51,29.97,29.86,2,0,3,0.00
2012-8-20,77,64,54,64,59,52,98,86,58,29.90,29.79,4,0,6,0.27
2012-8-21,81,67,57,63,59,52,98,78,38,30.06,29.89,2,0,4,0.01
2012-8-22,81,65,54,65,58,52,95,80,50,30.12,30.04,3,0,4,0.00
2012-8-23,84,69,57,68,62,56,97,80,48,30.12,30.03,3,0,5,0.00
2012-8-24,83,70,58,68,62,56,94,78,49,30.17,30.09,1,0,2,0.00
2012-8-25,84,70,61,69,63,60,96,81,51,30.25,30.14,2,0,5,0.00
2012-8-26,85,72,63,65,61,56,93,69,48,30.29,30.16,3,0,6,0.00
2012-8-27,82,71,64,73,67,61,95,88,69,30.17,29.88,4,0,7,0.09
2012-8-28,85,74,66,70,65,59,98,77,46,29.88,29.73,4,0,8,1.21
2012-8-29,77,66,57,60,53,47,88,66,36,30.00,29.88,3,0,5,0.00
2012-8-30,80,64,50,62,56,48,97,79,48,30.07,29.95,2,0,6,0.00
2012-8-31,88,71,53,71,61,52,96,75,41,29.99,29.79,2,0,7,0.00
2012-9-1,86,75,67,69,65,61,89,72,47,30.02,29.85,1,0,4,0.00
2012-9-2,83,70,62,66,60,55,86,71,40,30.08,29.98,2,0,3,0.00
2012-9-3,76,66,58,62,59,56,94,79,58,30.14,30.06,4,0,6,0.00
2012-9-4,75,70,66,71,67,62,96,89,82,30.07,29.75,2,0,5,0.03
2012-9-5,80,73,65,72,68,63,99,86,66,29.81,29.67,2,0,7,0.77
2012-9-6,80,69,61,72,65,59,96,88,70,29.89,29.77,3,0,7,0.00
2012-9-7,85,74,66,73,68,66,97,85,58,29.90,29.78,1,0,3,0.00
2012-9-8,83,70,61,74,67,59,98,91,71,29.80,29.47,7,1,10,0.59
2012-9-9,73,62,55,62,58,54,98,87,62,29.88,29.73,2,0,5,0.13
2012-9-10,69,59,50,53,48,43,94,69,43,30.11,29.88,6,1,12,0.01
2012-9-11,72,56,43,55,49,42,94,77,46,30.25,30.11,1,0,3,0.00
2012-9-12,79,61,49,60,54,48,97,80,46,30.34,30.24,2,0,6,0.00
2012-9-13,82,64,51,67,57,50,97,80,52,30.34,30.19,2,0,5,0.00
2012-9-14,81,65,54,64,59,53,96,81,52,30.22,30.01,3,0,7,0.00
2012-9-15,71,61,52,60,52,47,94,73,45,30.11,30.03,5,0,8,0.04
2012-9-16,74,58,48,55,48,46,96,74,38,30.09,29.97,2,0,5,0.00
2012-9-17,77,59,46,60,52,44,95,79,47,30.08,29.95,2,0,4,0.00
2012-9-18,70,65,59,69,63,54,98,94,80,29.97,29.48,4,1,9,2.48
2012-9-19,67,58,47,65,50,45,98,79,50,30.18,29.63,5,0,9,0.09
2012-9-20,69,55,43,55,48,41,94,80,56,30.22,30.06,4,0,7,0.00
2012-9-21,70,60,53,61,56,52,95,85,68,30.07,29.96,4,0,7,0.00
2012-9-22,65,60,54,63,58,52,98,92,86,29.96,29.74,3,0,6,0.55
2012-9-23,66,56,46,58,47,42,98,75,43,30.10,29.81,2,0,8,0.01
2012-9-24,63,51,43,48,44,41,95,80,47,30.14,30.04,1,0,4,0.00
2012-9-25,72,56,42,52,46,41,96,73,42,30.11,30.03,5,0,9,0.00
2012-9-26,67,61,57,61,58,51,95,88,78,30.05,29.96,3,0,6,0.01
2012-9-27,69,59,53,61,53,49,98,82,53,30.18,29.99,1,0,6,0.00
2012-9-28,54,52,50,54,52,49,98,96,87,30.19,29.96,1,0,3,0.96
2012-9-29,62,56,53,56,54,52,98,92,82,29.95,29.84,3,0,3,0.00
2012-9-30,63,55,51,57,53,50,96,92,79,29.88,29.70,1,0,2,0.18
2012-10-1,66,56,49,56,52,48,97,87,64,29.93,29.70,4,0,6,0.00
2012-10-2,60,56,52,58,55,51,97,95,91,30.00,29.92,1,0,4,0.16
2012-10-3,69,63,58,66,62,58,99,96,90,30.07,29.97,2,0,4,0.00
2012-10-4,68,64,61,67,64,60,99,98,97,30.10,30.00,1,0,3,0.68
2012-10-5,75,64,57,64,60,57,99,90,63,30.03,29.86,3,0,4,0.01
2012-10-6,68,57,47,62,53,42,99,86,65,29.97,29.69,5,0,7,0.00
2012-10-7,53,49,46,46,42,38,94,78,68,30.07,29.96,1,0,4,0.10
2012-10-8,55,48,43,46,44,41,97,86,67,30.26,30.05,1,0,2,0.01
2012-10-9,60,51,43,51,46,41,94,86,71,30.24,30.06,1,0,2,0.00
2012-10-10,59,53,49,57,51,42,97,92,76,30.06,29.73,4,0,8,0.25
2012-10-11,58,49,43,40,37,34,78,64,45,30.13,29.86,3,1,10,0.00
2012-10-12,52,45,37,41,33,24,89,66,40,30.39,30.00,5,1,11,0.01
2012-10-13,53,40,28,34,29,25,93,67,39,30.48,30.21,5,0,7,0.00
2012-10-14,68,55,46,54,47,35,89,75,62,30.22,29.84,10,1,12,0.01
2012-10-15,68,60,53,62,57,50,96,88,77,29.83,29.58,7,0,8,0.22
2012-10-16,56,48,38,51,39,35,94,72,52,29.89,29.63,5,1,13,0.01
2012-10-17,60,44,35,45,39,33,95,83,53,29.98,29.88,1,0,3,0.00
2012-10-18,67,51,36,53,45,36,98,82,56,30.01,29.90,3,0,7,0.00
2012-10-19,63,58,53,63,58,51,99,97,87,29.94,29.61,1,0,5,1.92
2012-10-20,70,58,46,61,52,42,99,83,38,29.75,29.58,3,0,10,0.00
2012-10-21,65,53,43,45,42,39,94,69,42,29.94,29.75,4,0,15,0.00
2012-10-22,68,56,48,46,43,41,79,62,39,30.02,29.94,5,1,10,0.00
2012-10-23,54,48,41,50,45,39,96,90,77,30.11,30.02,1,0,3,0.08
2012-10-24,54,51,48,50,49,47,97,93,84,30.17,30.09,1,0,1,0.01
2012-10-25,58,54,51,54,52,50,96,91,85,30.23,30.16,2,0,7,0.00
2012-10-26,64,59,56,57,54,52,90,85,74,30.18,30.08,3,0,7,0.00
2012-10-27,63,58,53,56,54,51,94,87,76,30.08,29.93,0,0,1,0.00
2012-10-28,58,55,52,52,49,45,94,81,63,29.95,29.75,1,0,4,0.00
2012-10-29,61,55,52,58,50,46,93,82,74,29.74,28.93,5,1,11,0.05
2012-10-30,60,56,54,54,50,47,91,80,70,29.44,29.10,4,0,12,0.02
2012-10-31,53,46,43,48,41,38,94,82,71,29.52,29.40,4,0,9,0.04
2012-11-1,52,46,42,45,41,38,92,84,69,29.54,29.48,2,0,7,0.02
2012-11-2,50,45,42,43,38,33,94,77,58,29.68,29.54,3,0,8,0.02
2012-11-3,47,42,39,35,33,31,76,69,57,29.90,29.68,7,1,11,0.00
2012-11-4,45,40,36,32,30,25,74,67,57,29.98,29.90,4,1,12,0.00
2012-11-5,45,36,28,25,22,18,70,56,38,30.16,29.98,4,1,8,0.00
2012-11-6,42,30,22,24,20,18,85,69,45,30.23,30.11,1,0,4,0.00
2012-11-7,37,32,26,27,22,19,81,68,50,30.14,29.85,3,0,8,0.00
2012-11-8,45,39,35,26,23,21,65,54,42,29.91,29.76,7,1,15,0.00
2012-11-9,54,43,34,36,26,19,67,53,27,30.13,29.91,8,1,12,0.00
2012-11-10,54,46,42,41,38,35,81,73,60,30.36,30.13,3,0,4,0.00
2012-11-11,64,53,46,47,44,39,84,71,53,30.40,30.33,3,0,9,0.00
2012-11-12,66,56,45,56,50,42,90,80,59,30.37,30.09,6,0,8,0.00
2012-11-13,60,44,39,57,37,26,94,78,58,30.44,30.04,4,0,8,1.14
2012-11-14,47,38,31,27,25,23,76,62,40,30.56,30.44,3,0,8,0.00
2012-11-15,42,33,27,31,26,22,87,75,57,30.48,30.30,1,0,3,0.00
2012-11-16,43,33,25,33,27,22,91,79,61,30.45,30.30,1,0,3,0.00
2012-11-17,46,34,27,33,28,24,91,80,58,30.64,30.45,3,0,4,0.00
2012-11-18,48,32,24,33,26,21,94,79,42,30.70,30.58,1,0,4,0.00
2012-11-19,48,31,23,32,25,21,93,79,43,30.58,30.25,1,0,3,0.00
2012-11-20,47,34,24,32,27,21,91,76,52,30.24,30.09,1,0,2,0.00
2012-11-21,52,36,28,35,27,22,91,74,31,30.24,30.14,1,0,3,0.00
2012-11-22,54,34,24,35,28,22,92,78,45,30.27,30.08,2,0,5,0.00
2012-11-23,58,43,27,42,35,26,96,76,45,30.08,29.59,3,0,7,0.00
2012-11-24,44,38,32,40,24,20,86,59,44,29.75,29.60,7,1,12,0.00
2012-11-25,39,34,30,26,22,19,78,64,48,29.86,29.75,6,0,10,0.00
2012-11-26,42,36,30,29,26,24,84,70,51,30.21,29.85,3,0,7,0.00
2012-11-27,35,33,31,34,31,28,94,91,84,30.28,30.21,1,0,2,0.09
2012-11-28,38,32,24,32,25,21,94,78,53,30.21,30.12,3,0,7,0.00
2012-11-29,46,33,23,27,24,19,92,73,33,30.26,30.15,2,0,8,0.00
2012-11-30,32,28,24,28,21,15,87,74,54,30.50,30.22,2,0,6,0.00
2012-12-1,33,28,23,32,26,20,94,90,85,30.55,30.40,2,0,2,0.01
2012-12-2,45,40,33,44,39,32,97,94,89,30.39,30.01,5,1,9,0.22
2012-12-3,51,43,31,46,39,29,97,87,73,30.25,30.02,5,0,6,0.00
2012-12-4,53,44,31,50,43,29,97,93,86,30.24,29.86,6,0,7,0.00
2012-12-5,52,43,30,51,34,17,96,71,52,30.24,29.83,6,1,13,0.05
2012-12-6,35,28,22,21,18,15,85,65,51,30.37,30.22,9,1,11,0.00
2012-12-7,37,33,22,35,29,18,94,84,71,30.21,30.00,6,0,8,0.03
2012-12-8,42,38,35,42,38,33,97,96,94,30.00,29.82,3,0,3,0.28
2012-12-9,44,40,37,40,35,32,97,83,66,30.25,29.99,2,0,5,0.14
2012-12-10,50,44,38,49,43,36,98,95,83,30.00,29.48,4,0,9,0.14
2012-12-11,43,38,27,39,31,24,94,79,61,30.18,29.61,7,0,10,0.10
2012-12-12,39,28,22,30,24,20,94,86,65,30.41,30.17,2,0,5,0.00
2012-12-13,41,28,24,31,25,22,95,87,61,30.47,30.27,1,0,3,0.00
2012-12-14,43,28,20,30,24,18,95,84,56,30.27,30.10,2,0,3,0.00
2012-12-15,41,32,27,31,27,22,94,82,63,30.30,30.18,1,0,4,0.00
2012-12-16,35,33,29,33,29,22,94,87,74,30.22,29.95,2,0,5,0.02
2012-12-17,39,37,34,38,36,33,97,96,93,29.95,29.66,1,0,3,0.44
2012-12-18,44,41,38,43,40,37,98,97,86,29.66,29.41,2,0,4,0.79
2012-12-19,45,41,37,37,29,25,87,64,54,30.09,29.53,9,2,16,0.01
2012-12-20,38,34,26,31,26,23,91,75,63,30.21,29.81,2,0,4,0.13
2012-12-21,50,41,34,49,37,29,98,85,65,29.75,28.96,8,1,10,0.88
2012-12-22,37,34,31,32,24,19,84,67,54,29.74,29.20,7,2,15,0.00
2012-12-23,40,34,28,27,24,22,82,68,53,29.87,29.74,7,0,12,0.00
2012-12-24,36,32,28,24,22,19,83,67,57,30.07,29.87,4,0,8,0.00
2012-12-25,34,30,26,27,25,21,92,84,71,30.27,29.92,2,0,5,0.01
2012-12-26,27,24,22,24,19,17,94,80,72,30.32,29.72,2,0,6,0.41
2012-12-27,35,30,26,31,26,18,94,86,71,29.80,29.44,7,2,16,0.63
2012-12-28,35,30,24,25,23,18,85,76,67,30.06,29.80,5,1,10,0.00
2012-12-29,29,26,20,27,24,17,94,91,85,30.03,29.54,1,0,3,0.15
2012-12-30,31,26,22,25,16,12,92,66,47,30.12,29.56,10,2,20,0.00
2012-12-31,35,28,18,24,20,11,82,72,59,30.11,29.78,4,0,6,0.00
2013-1-1,37,29,16,26,19,8,78,66,54,29.97,29.76,5,1,14,0.00